sensor_id;sensor_type;location;lat;lon;timestamp;P1;durP1;ratioP1;P2;durP2;ratioP2
6823;SDS011;58633;49.470;11.004;2023-08-08T00:00:46;2.83;;;2.40;;
6823;SDS011;58633;49.470;11.004;2023-08-08T00:03:12;3.45;;;2.55;;
6823;SDS011;58633;49.470;11.004;2023-08-08T00:05:38;4.22;;;2.45;;
6823;SDS011;58633;49.470;11.004;2023-08-08T00:08:04;4.00;;;3.20;;
6823;SDS011;58633;49.470;11.004;2023-08-08T00:10:30;3.58;;;2.70;;
6823;SDS011;58633;49.470;11.004;2023-08-08T00:12:56;2.55;;;2.35;;
6823;SDS011;58633;49.470;11.004;2023-08-08T00:15:22;2.83;;;2.60;;
6823;SDS011;58633;49.470;11.004;2023-08-08T00:17:47;2.65;;;2.45;;
6823;SDS011;58633;49.470;11.004;2023-08-08T00:20:13;3.95;;;2.80;;
6823;SDS011;58633;49.470;11.004;2023-08-08T00:22:38;3.33;;;2.25;;
6823;SDS011;58633;49.470;11.004;2023-08-08T00:25:04;3.72;;;2.47;;
6823;SDS011;58633;49.470;11.004;2023-08-08T00:27:30;2.80;;;2.60;;
6823;SDS011;58633;49.470;11.004;2023-08-08T00:29:55;3.53;;;2.28;;
6823;SDS011;58633;49.470;11.004;2023-08-08T00:32:21;3.35;;;2.50;;
6823;SDS011;58633;49.470;11.004;2023-08-08T00:34:47;2.30;;;2.10;;
6823;SDS011;58633;49.470;11.004;2023-08-08T00:37:13;6.95;;;2.70;;
6823;SDS011;58633;49.470;11.004;2023-08-08T00:39:38;2.58;;;2.15;;
6823;SDS011;58633;49.470;11.004;2023-08-08T00:42:07;2.72;;;2.50;;
6823;SDS011;58633;49.470;11.004;2023-08-08T00:44:32;2.20;;;2.10;;
6823;SDS011;58633;49.470;11.004;2023-08-08T00:46:58;2.80;;;2.50;;
6823;SDS011;58633;49.470;11.004;2023-08-08T00:49:23;2.30;;;2.10;;
6823;SDS011;58633;49.470;11.004;2023-08-08T00:51:49;2.40;;;2.20;;
6823;SDS011;58633;49.470;11.004;2023-08-08T00:54:15;4.22;;;2.33;;
6823;SDS011;58633;49.470;11.004;2023-08-08T00:56:41;2.60;;;2.40;;
6823;SDS011;58633;49.470;11.004;2023-08-08T00:59:07;3.05;;;2.75;;
6823;SDS011;58633;49.470;11.004;2023-08-08T01:01:36;2.92;;;2.20;;
6823;SDS011;58633;49.470;11.004;2023-08-08T01:04:03;3.35;;;2.50;;
6823;SDS011;58633;49.470;11.004;2023-08-08T01:06:35;2.00;;;1.90;;
6823;SDS011;58633;49.470;11.004;2023-08-08T01:09:13;2.25;;;1.95;;
6823;SDS011;58633;49.470;11.004;2023-08-08T01:11:53;3.03;;;2.20;;
6823;SDS011;58633;49.470;11.004;2023-08-08T01:14:19;2.53;;;2.30;;
6823;SDS011;58633;49.470;11.004;2023-08-08T01:16:49;2.17;;;2.08;;
6823;SDS011;58633;49.470;11.004;2023-08-08T01:19:19;2.67;;;2.47;;
6823;SDS011;58633;49.470;11.004;2023-08-08T01:21:52;3.05;;;2.20;;
6823;SDS011;58633;49.470;11.004;2023-08-08T01:26:45;2.58;;;2.38;;
6823;SDS011;58633;49.470;11.004;2023-08-08T01:29:11;2.88;;;2.30;;
6823;SDS011;58633;49.470;11.004;2023-08-08T01:31:37;2.42;;;2.22;;
6823;SDS011;58633;49.470;11.004;2023-08-08T01:34:02;2.97;;;1.83;;
6823;SDS011;58633;49.470;11.004;2023-08-08T01:39:16;1.98;;;1.77;;
6823;SDS011;58633;49.470;11.004;2023-08-08T01:41:45;2.22;;;2.03;;
6823;SDS011;58633;49.470;11.004;2023-08-08T01:44:13;2.05;;;1.95;;
6823;SDS011;58633;49.470;11.004;2023-08-08T01:46:39;2.22;;;2.00;;
6823;SDS011;58633;49.470;11.004;2023-08-08T01:49:05;2.30;;;2.10;;
6823;SDS011;58633;49.470;11.004;2023-08-08T01:51:30;2.55;;;1.85;;
6823;SDS011;58633;49.470;11.004;2023-08-08T01:53:56;2.05;;;1.95;;
6823;SDS011;58633;49.470;11.004;2023-08-08T01:56:22;3.53;;;2.00;;
6823;SDS011;58633;49.470;11.004;2023-08-08T01:58:47;2.10;;;1.90;;
6823;SDS011;58633;49.470;11.004;2023-08-08T02:01:13;2.30;;;1.90;;
6823;SDS011;58633;49.470;11.004;2023-08-08T02:03:39;2.10;;;1.90;;
6823;SDS011;58633;49.470;11.004;2023-08-08T02:06:04;2.60;;;1.85;;
6823;SDS011;58633;49.470;11.004;2023-08-08T02:08:30;2.20;;;2.00;;
6823;SDS011;58633;49.470;11.004;2023-08-08T02:10:56;2.22;;;2.03;;
6823;SDS011;58633;49.470;11.004;2023-08-08T02:13:22;1.90;;;1.80;;
6823;SDS011;58633;49.470;11.004;2023-08-08T02:15:48;2.10;;;1.90;;
6823;SDS011;58633;49.470;11.004;2023-08-08T02:18:13;2.33;;;1.80;;
6823;SDS011;58633;49.470;11.004;2023-08-08T02:20:39;2.13;;;1.80;;
6823;SDS011;58633;49.470;11.004;2023-08-08T02:23:05;1.80;;;1.70;;
6823;SDS011;58633;49.470;11.004;2023-08-08T02:25:31;2.22;;;1.90;;
6823;SDS011;58633;49.470;11.004;2023-08-08T02:27:57;2.35;;;1.92;;
6823;SDS011;58633;49.470;11.004;2023-08-08T02:30:23;2.10;;;1.90;;
6823;SDS011;58633;49.470;11.004;2023-08-08T02:32:48;3.22;;;1.80;;
6823;SDS011;58633;49.470;11.004;2023-08-08T02:35:14;1.85;;;1.75;;
6823;SDS011;58633;49.470;11.004;2023-08-08T02:37:40;3.40;;;1.63;;
6823;SDS011;58633;49.470;11.004;2023-08-08T02:40:06;2.00;;;1.90;;
6823;SDS011;58633;49.470;11.004;2023-08-08T02:42:32;2.47;;;1.90;;
6823;SDS011;58633;49.470;11.004;2023-08-08T02:44:58;1.80;;;1.70;;
6823;SDS011;58633;49.470;11.004;2023-08-08T02:47:24;1.73;;;1.55;;
6823;SDS011;58633;49.470;11.004;2023-08-08T02:49:50;3.42;;;1.80;;
6823;SDS011;58633;49.470;11.004;2023-08-08T02:52:16;2.70;;;1.45;;
6823;SDS011;58633;49.470;11.004;2023-08-08T02:54:41;2.53;;;1.85;;
6823;SDS011;58633;49.470;11.004;2023-08-08T02:57:07;2.42;;;1.77;;
6823;SDS011;58633;49.470;11.004;2023-08-08T02:59:35;3.65;;;1.70;;
6823;SDS011;58633;49.470;11.004;2023-08-08T03:02:01;1.60;;;1.50;;
6823;SDS011;58633;49.470;11.004;2023-08-08T03:04:28;3.42;;;1.50;;
6823;SDS011;58633;49.470;11.004;2023-08-08T03:06:54;1.80;;;1.52;;
6823;SDS011;58633;49.470;11.004;2023-08-08T03:09:20;2.10;;;1.63;;
6823;SDS011;58633;49.470;11.004;2023-08-08T03:11:46;2.05;;;1.50;;
6823;SDS011;58633;49.470;11.004;2023-08-08T03:14:12;1.88;;;1.42;;
6823;SDS011;58633;49.470;11.004;2023-08-08T03:16:37;2.65;;;1.75;;
6823;SDS011;58633;49.470;11.004;2023-08-08T03:19:03;2.72;;;1.70;;
6823;SDS011;58633;49.470;11.004;2023-08-08T03:21:29;1.70;;;1.58;;
6823;SDS011;58633;49.470;11.004;2023-08-08T03:23:56;2.58;;;1.45;;
6823;SDS011;58633;49.470;11.004;2023-08-08T03:26:22;1.42;;;1.33;;
6823;SDS011;58633;49.470;11.004;2023-08-08T03:28:48;2.15;;;1.60;;
6823;SDS011;58633;49.470;11.004;2023-08-08T03:31:15;2.95;;;1.70;;
6823;SDS011;58633;49.470;11.004;2023-08-08T03:33:42;2.28;;;1.80;;
6823;SDS011;58633;49.470;11.004;2023-08-08T03:36:08;3.40;;;1.80;;
6823;SDS011;58633;49.470;11.004;2023-08-08T03:38:34;1.92;;;1.83;;
6823;SDS011;58633;49.470;11.004;2023-08-08T03:41:02;2.60;;;1.60;;
6823;SDS011;58633;49.470;11.004;2023-08-08T03:43:28;2.08;;;1.75;;
6823;SDS011;58633;49.470;11.004;2023-08-08T03:45:54;2.30;;;1.88;;
6823;SDS011;58633;49.470;11.004;2023-08-08T03:48:20;1.77;;;1.67;;
6823;SDS011;58633;49.470;11.004;2023-08-08T03:50:46;1.88;;;1.70;;
6823;SDS011;58633;49.470;11.004;2023-08-08T03:53:12;2.35;;;1.75;;
6823;SDS011;58633;49.470;11.004;2023-08-08T03:55:38;2.53;;;2.00;;
6823;SDS011;58633;49.470;11.004;2023-08-08T03:58:03;1.88;;;1.77;;
6823;SDS011;58633;49.470;11.004;2023-08-08T04:00:30;1.80;;;1.65;;
6823;SDS011;58633;49.470;11.004;2023-08-08T04:02:56;2.38;;;1.90;;
6823;SDS011;58633;49.470;11.004;2023-08-08T04:05:21;1.60;;;1.50;;
6823;SDS011;58633;49.470;11.004;2023-08-08T04:07:47;5.60;;;1.90;;
6823;SDS011;58633;49.470;11.004;2023-08-08T04:10:13;1.70;;;1.60;;
6823;SDS011;58633;49.470;11.004;2023-08-08T04:12:39;1.90;;;1.80;;
6823;SDS011;58633;49.470;11.004;2023-08-08T04:15:04;3.03;;;2.03;;
6823;SDS011;58633;49.470;11.004;2023-08-08T04:17:30;2.35;;;2.05;;
6823;SDS011;58633;49.470;11.004;2023-08-08T04:19:56;2.85;;;1.85;;
6823;SDS011;58633;49.470;11.004;2023-08-08T04:22:22;2.13;;;1.92;;
6823;SDS011;58633;49.470;11.004;2023-08-08T04:24:48;2.15;;;1.90;;
6823;SDS011;58633;49.470;11.004;2023-08-08T04:27:14;2.10;;;1.90;;
6823;SDS011;58633;49.470;11.004;2023-08-08T04:29:40;3.22;;;2.05;;
6823;SDS011;58633;49.470;11.004;2023-08-08T04:32:06;2.80;;;2.30;;
6823;SDS011;58633;49.470;11.004;2023-08-08T04:34:32;1.98;;;1.83;;
6823;SDS011;58633;49.470;11.004;2023-08-08T04:36:57;2.03;;;1.83;;
6823;SDS011;58633;49.470;11.004;2023-08-08T04:39:23;2.00;;;1.90;;
6823;SDS011;58633;49.470;11.004;2023-08-08T04:41:48;2.80;;;2.00;;
6823;SDS011;58633;49.470;11.004;2023-08-08T04:44:14;2.22;;;2.10;;
6823;SDS011;58633;49.470;11.004;2023-08-08T04:46:41;4.57;;;2.42;;
6823;SDS011;58633;49.470;11.004;2023-08-08T04:49:06;2.53;;;2.33;;
6823;SDS011;58633;49.470;11.004;2023-08-08T04:51:32;2.22;;;2.03;;
6823;SDS011;58633;49.470;11.004;2023-08-08T04:53:57;2.25;;;2.05;;
6823;SDS011;58633;49.470;11.004;2023-08-08T04:56:23;3.45;;;2.22;;
6823;SDS011;58633;49.470;11.004;2023-08-08T04:58:48;2.65;;;2.00;;
6823;SDS011;58633;49.470;11.004;2023-08-08T05:01:14;2.85;;;1.95;;
6823;SDS011;58633;49.470;11.004;2023-08-08T05:03:42;2.40;;;2.20;;
6823;SDS011;58633;49.470;11.004;2023-08-08T05:06:08;2.63;;;2.20;;
6823;SDS011;58633;49.470;11.004;2023-08-08T05:08:33;3.28;;;2.25;;
6823;SDS011;58633;49.470;11.004;2023-08-08T05:10:59;2.60;;;2.10;;
6823;SDS011;58633;49.470;11.004;2023-08-08T05:13:25;2.47;;;2.10;;
6823;SDS011;58633;49.470;11.004;2023-08-08T05:15:51;2.65;;;1.92;;
6823;SDS011;58633;49.470;11.004;2023-08-08T05:18:17;4.15;;;2.38;;
6823;SDS011;58633;49.470;11.004;2023-08-08T05:20:42;6.03;;;2.00;;
6823;SDS011;58633;49.470;11.004;2023-08-08T05:23:08;2.13;;;1.92;;
6823;SDS011;58633;49.470;11.004;2023-08-08T05:25:33;2.17;;;2.00;;
6823;SDS011;58633;49.470;11.004;2023-08-08T05:27:59;3.42;;;2.00;;
6823;SDS011;58633;49.470;11.004;2023-08-08T05:30:24;2.17;;;1.98;;
6823;SDS011;58633;49.470;11.004;2023-08-08T05:32:50;2.22;;;2.00;;
6823;SDS011;58633;49.470;11.004;2023-08-08T05:35:16;5.35;;;2.20;;
6823;SDS011;58633;49.470;11.004;2023-08-08T05:37:41;2.20;;;1.88;;
6823;SDS011;58633;49.470;11.004;2023-08-08T05:40:07;2.53;;;1.83;;
6823;SDS011;58633;49.470;11.004;2023-08-08T05:42:33;2.33;;;2.03;;
6823;SDS011;58633;49.470;11.004;2023-08-08T05:44:59;1.90;;;1.80;;
6823;SDS011;58633;49.470;11.004;2023-08-08T05:47:24;2.95;;;2.10;;
6823;SDS011;58633;49.470;11.004;2023-08-08T05:49:50;4.25;;;2.00;;
6823;SDS011;58633;49.470;11.004;2023-08-08T05:52:15;2.03;;;1.92;;
6823;SDS011;58633;49.470;11.004;2023-08-08T05:54:41;2.78;;;1.90;;
6823;SDS011;58633;49.470;11.004;2023-08-08T05:57:06;2.03;;;1.80;;
6823;SDS011;58633;49.470;11.004;2023-08-08T05:59:32;2.20;;;1.90;;
6823;SDS011;58633;49.470;11.004;2023-08-08T06:01:58;4.53;;;2.47;;
6823;SDS011;58633;49.470;11.004;2023-08-08T06:04:24;4.95;;;2.28;;
6823;SDS011;58633;49.470;11.004;2023-08-08T06:06:49;2.75;;;1.90;;
6823;SDS011;58633;49.470;11.004;2023-08-08T06:09:15;2.05;;;1.85;;
6823;SDS011;58633;49.470;11.004;2023-08-08T06:11:42;2.65;;;1.90;;
6823;SDS011;58633;49.470;11.004;2023-08-08T06:14:07;2.00;;;1.90;;
6823;SDS011;58633;49.470;11.004;2023-08-08T06:16:33;2.97;;;2.30;;
6823;SDS011;58633;49.470;11.004;2023-08-08T06:18:59;2.60;;;1.90;;
6823;SDS011;58633;49.470;11.004;2023-08-08T06:21:24;3.83;;;2.03;;
6823;SDS011;58633;49.470;11.004;2023-08-08T06:23:50;3.15;;;2.10;;
6823;SDS011;58633;49.470;11.004;2023-08-08T06:26:18;2.78;;;2.05;;
6823;SDS011;58633;49.470;11.004;2023-08-08T06:28:43;1.95;;;1.85;;
6823;SDS011;58633;49.470;11.004;2023-08-08T06:31:09;2.38;;;1.85;;
6823;SDS011;58633;49.470;11.004;2023-08-08T06:33:35;2.55;;;1.73;;
6823;SDS011;58633;49.470;11.004;2023-08-08T06:36:01;2.28;;;1.60;;
6823;SDS011;58633;49.470;11.004;2023-08-08T06:38:28;2.17;;;1.88;;
6823;SDS011;58633;49.470;11.004;2023-08-08T06:40:53;2.08;;;1.90;;
6823;SDS011;58633;49.470;11.004;2023-08-08T06:43:21;1.73;;;1.63;;
6823;SDS011;58633;49.470;11.004;2023-08-08T06:45:46;3.15;;;1.60;;
6823;SDS011;58633;49.470;11.004;2023-08-08T06:48:12;1.67;;;1.58;;
6823;SDS011;58633;49.470;11.004;2023-08-08T06:50:38;3.85;;;2.08;;
6823;SDS011;58633;49.470;11.004;2023-08-08T06:53:03;2.35;;;1.60;;
6823;SDS011;58633;49.470;11.004;2023-08-08T06:55:29;2.35;;;1.77;;
6823;SDS011;58633;49.470;11.004;2023-08-08T06:57:55;3.75;;;1.63;;
6823;SDS011;58633;49.470;11.004;2023-08-08T07:00:20;2.92;;;1.85;;
6823;SDS011;58633;49.470;11.004;2023-08-08T07:02:46;3.65;;;1.90;;
6823;SDS011;58633;49.470;11.004;2023-08-08T07:05:11;2.55;;;1.60;;
6823;SDS011;58633;49.470;11.004;2023-08-08T07:07:37;1.73;;;1.58;;
6823;SDS011;58633;49.470;11.004;2023-08-08T07:10:03;1.50;;;1.40;;
6823;SDS011;58633;49.470;11.004;2023-08-08T07:12:30;4.28;;;2.17;;
6823;SDS011;58633;49.470;11.004;2023-08-08T07:14:55;2.60;;;1.70;;
6823;SDS011;58633;49.470;11.004;2023-08-08T07:17:21;2.30;;;1.60;;
6823;SDS011;58633;49.470;11.004;2023-08-08T07:19:47;1.88;;;1.70;;
6823;SDS011;58633;49.470;11.004;2023-08-08T07:22:12;1.67;;;1.55;;
6823;SDS011;58633;49.470;11.004;2023-08-08T07:24:38;1.60;;;1.50;;
6823;SDS011;58633;49.470;11.004;2023-08-08T07:27:04;2.92;;;1.73;;
6823;SDS011;58633;49.470;11.004;2023-08-08T07:29:29;1.85;;;1.75;;
6823;SDS011;58633;49.470;11.004;2023-08-08T07:31:57;3.00;;;1.80;;
6823;SDS011;58633;49.470;11.004;2023-08-08T07:34:23;1.65;;;1.55;;
6823;SDS011;58633;49.470;11.004;2023-08-08T07:36:49;2.85;;;1.70;;
6823;SDS011;58633;49.470;11.004;2023-08-08T07:39:15;3.85;;;2.00;;
6823;SDS011;58633;49.470;11.004;2023-08-08T07:41:40;2.47;;;1.88;;
6823;SDS011;58633;49.470;11.004;2023-08-08T07:44:06;3.80;;;1.40;;
6823;SDS011;58633;49.470;11.004;2023-08-08T07:46:32;2.35;;;1.60;;
6823;SDS011;58633;49.470;11.004;2023-08-08T07:48:57;2.42;;;1.60;;
6823;SDS011;58633;49.470;11.004;2023-08-08T07:51:28;3.90;;;1.50;;
6823;SDS011;58633;49.470;11.004;2023-08-08T07:53:54;1.67;;;1.50;;
6823;SDS011;58633;49.470;11.004;2023-08-08T07:56:19;2.25;;;1.60;;
6823;SDS011;58633;49.470;11.004;2023-08-08T07:58:45;2.25;;;1.40;;
6823;SDS011;58633;49.470;11.004;2023-08-08T08:01:11;2.17;;;1.45;;
6823;SDS011;58633;49.470;11.004;2023-08-08T08:03:38;1.50;;;1.40;;
6823;SDS011;58633;49.470;11.004;2023-08-08T08:06:04;2.15;;;1.40;;
6823;SDS011;58633;49.470;11.004;2023-08-08T08:08:30;3.50;;;1.55;;
6823;SDS011;58633;49.470;11.004;2023-08-08T08:10:55;2.95;;;1.30;;
6823;SDS011;58633;49.470;11.004;2023-08-08T08:13:21;1.65;;;1.30;;
6823;SDS011;58633;49.470;11.004;2023-08-08T08:15:46;2.70;;;1.23;;
6823;SDS011;58633;49.470;11.004;2023-08-08T08:18:12;1.25;;;1.08;;
6823;SDS011;58633;49.470;11.004;2023-08-08T08:20:39;2.78;;;1.02;;
6823;SDS011;58633;49.470;11.004;2023-08-08T08:23:05;1.33;;;1.23;;
6823;SDS011;58633;49.470;11.004;2023-08-08T08:25:31;1.25;;;1.15;;
6823;SDS011;58633;49.470;11.004;2023-08-08T08:27:57;1.58;;;1.00;;
6823;SDS011;58633;49.470;11.004;2023-08-08T08:30:22;1.15;;;1.05;;
6823;SDS011;58633;49.470;11.004;2023-08-08T08:32:50;1.50;;;1.17;;
6823;SDS011;58633;49.470;11.004;2023-08-08T08:35:16;1.15;;;1.10;;
6823;SDS011;58633;49.470;11.004;2023-08-08T08:37:42;1.38;;;1.00;;
6823;SDS011;58633;49.470;11.004;2023-08-08T08:40:08;1.98;;;1.20;;
6823;SDS011;58633;49.470;11.004;2023-08-08T08:42:34;3.03;;;1.00;;
6823;SDS011;58633;49.470;11.004;2023-08-08T08:45:01;2.75;;;1.10;;
6823;SDS011;58633;49.470;11.004;2023-08-08T08:47:28;1.10;;;1.10;;
6823;SDS011;58633;49.470;11.004;2023-08-08T08:49:56;1.33;;;1.10;;
6823;SDS011;58633;49.470;11.004;2023-08-08T08:52:22;1.77;;;1.23;;
6823;SDS011;58633;49.470;11.004;2023-08-08T08:54:49;1.45;;;1.33;;
6823;SDS011;58633;49.470;11.004;2023-08-08T08:57:16;4.07;;;1.30;;
6823;SDS011;58633;49.470;11.004;2023-08-08T08:59:42;1.00;;;1.00;;
6823;SDS011;58633;49.470;11.004;2023-08-08T09:02:07;1.00;;;1.00;;
6823;SDS011;58633;49.470;11.004;2023-08-08T09:04:33;1.00;;;0.93;;
6823;SDS011;58633;49.470;11.004;2023-08-08T09:06:59;1.40;;;1.30;;
6823;SDS011;58633;49.470;11.004;2023-08-08T09:09:25;1.33;;;1.00;;
6823;SDS011;58633;49.470;11.004;2023-08-08T09:11:52;5.03;;;1.10;;
6823;SDS011;58633;49.470;11.004;2023-08-08T09:14:23;6.53;;;1.20;;
6823;SDS011;58633;49.470;11.004;2023-08-08T09:16:50;1.00;;;1.00;;
6823;SDS011;58633;49.470;11.004;2023-08-08T09:19:18;2.40;;;1.40;;
6823;SDS011;58633;49.470;11.004;2023-08-08T09:21:44;8.32;;;1.27;;
6823;SDS011;58633;49.470;11.004;2023-08-08T09:24:10;2.17;;;1.05;;
6823;SDS011;58633;49.470;11.004;2023-08-08T09:26:35;3.70;;;1.00;;
6823;SDS011;58633;49.470;11.004;2023-08-08T09:29:01;1.05;;;0.95;;
6823;SDS011;58633;49.470;11.004;2023-08-08T09:31:27;1.88;;;1.00;;
6823;SDS011;58633;49.470;11.004;2023-08-08T09:33:56;1.08;;;1.05;;
6823;SDS011;58633;49.470;11.004;2023-08-08T09:36:23;0.90;;;0.90;;
6823;SDS011;58633;49.470;11.004;2023-08-08T09:38:48;1.05;;;0.90;;
6823;SDS011;58633;49.470;11.004;2023-08-08T09:41:14;1.52;;;0.98;;
6823;SDS011;58633;49.470;11.004;2023-08-08T09:43:42;1.27;;;1.05;;
6823;SDS011;58633;49.470;11.004;2023-08-08T09:46:09;0.80;;;0.77;;
6823;SDS011;58633;49.470;11.004;2023-08-08T09:48:35;2.08;;;1.58;;
6823;SDS011;58633;49.470;11.004;2023-08-08T09:51:03;1.88;;;0.90;;
6823;SDS011;58633;49.470;11.004;2023-08-08T09:53:29;1.40;;;0.80;;
6823;SDS011;58633;49.470;11.004;2023-08-08T09:55:56;0.90;;;0.90;;
6823;SDS011;58633;49.470;11.004;2023-08-08T09:58:22;0.80;;;0.80;;
6823;SDS011;58633;49.470;11.004;2023-08-08T10:00:52;3.60;;;0.90;;
6823;SDS011;58633;49.470;11.004;2023-08-08T10:03:18;1.13;;;1.10;;
6823;SDS011;58633;49.470;11.004;2023-08-08T10:05:44;1.15;;;1.00;;
6823;SDS011;58633;49.470;11.004;2023-08-08T10:08:10;1.63;;;0.90;;
6823;SDS011;58633;49.470;11.004;2023-08-08T10:10:40;1.50;;;1.17;;
6823;SDS011;58633;49.470;11.004;2023-08-08T10:13:06;1.33;;;1.23;;
6823;SDS011;58633;49.470;11.004;2023-08-08T10:15:32;3.22;;;1.20;;
6823;SDS011;58633;49.470;11.004;2023-08-08T10:18:03;1.23;;;1.13;;
6823;SDS011;58633;49.470;11.004;2023-08-08T10:20:30;0.90;;;0.90;;
6823;SDS011;58633;49.470;11.004;2023-08-08T10:22:57;1.10;;;0.98;;
6823;SDS011;58633;49.470;11.004;2023-08-08T10:25:26;1.25;;;1.10;;
6823;SDS011;58633;49.470;11.004;2023-08-08T10:28:09;3.35;;;1.10;;
6823;SDS011;58633;49.470;11.004;2023-08-08T10:30:48;2.13;;;1.10;;
6823;SDS011;58633;49.470;11.004;2023-08-08T10:33:18;1.38;;;1.20;;
6823;SDS011;58633;49.470;11.004;2023-08-08T10:35:57;1.00;;;0.80;;
6823;SDS011;58633;49.470;11.004;2023-08-08T10:38:43;2.40;;;1.00;;
6823;SDS011;58633;49.470;11.004;2023-08-08T10:41:15;2.03;;;1.42;;
6823;SDS011;58633;49.470;11.004;2023-08-08T10:43:49;1.88;;;1.00;;
6823;SDS011;58633;49.470;11.004;2023-08-08T10:46:31;1.60;;;1.15;;
6823;SDS011;58633;49.470;11.004;2023-08-08T10:48:59;1.65;;;0.90;;
6823;SDS011;58633;49.470;11.004;2023-08-08T10:51:39;3.30;;;1.00;;
6823;SDS011;58633;49.470;11.004;2023-08-08T10:54:13;1.05;;;0.88;;
6823;SDS011;58633;49.470;11.004;2023-08-08T10:56:40;2.88;;;1.30;;
6823;SDS011;58633;49.470;11.004;2023-08-08T10:59:17;1.08;;;0.85;;
6823;SDS011;58633;49.470;11.004;2023-08-08T11:01:47;1.35;;;0.93;;
6823;SDS011;58633;49.470;11.004;2023-08-08T11:04:14;1.25;;;1.10;;
6823;SDS011;58633;49.470;11.004;2023-08-08T11:06:41;1.80;;;0.90;;
6823;SDS011;58633;49.470;11.004;2023-08-08T11:09:07;1.80;;;0.90;;
6823;SDS011;58633;49.470;11.004;2023-08-08T11:11:39;3.28;;;1.00;;
6823;SDS011;58633;49.470;11.004;2023-08-08T11:16:38;1.83;;;1.00;;
6823;SDS011;58633;49.470;11.004;2023-08-08T11:19:04;2.45;;;1.50;;
6823;SDS011;58633;49.470;11.004;2023-08-08T11:21:32;1.67;;;0.80;;
6823;SDS011;58633;49.470;11.004;2023-08-08T11:23:59;2.17;;;1.10;;
6823;SDS011;58633;49.470;11.004;2023-08-08T11:26:24;1.20;;;1.10;;
6823;SDS011;58633;49.470;11.004;2023-08-08T11:28:52;0.88;;;0.88;;
6823;SDS011;58633;49.470;11.004;2023-08-08T11:31:19;1.30;;;1.00;;
6823;SDS011;58633;49.470;11.004;2023-08-08T11:33:47;1.95;;;1.08;;
6823;SDS011;58633;49.470;11.004;2023-08-08T11:36:13;1.25;;;1.15;;
6823;SDS011;58633;49.470;11.004;2023-08-08T11:38:39;1.00;;;0.95;;
6823;SDS011;58633;49.470;11.004;2023-08-08T11:41:08;0.95;;;0.88;;
6823;SDS011;58633;49.470;11.004;2023-08-08T11:43:34;1.10;;;1.00;;
6823;SDS011;58633;49.470;11.004;2023-08-08T11:46:00;2.20;;;0.95;;
6823;SDS011;58633;49.470;11.004;2023-08-08T11:48:26;1.00;;;0.80;;
6823;SDS011;58633;49.470;11.004;2023-08-08T11:50:52;1.00;;;0.90;;
6823;SDS011;58633;49.470;11.004;2023-08-08T11:53:18;1.13;;;1.02;;
6823;SDS011;58633;49.470;11.004;2023-08-08T11:55:44;1.40;;;1.00;;
6823;SDS011;58633;49.470;11.004;2023-08-08T11:58:14;12.55;;;2.03;;
6823;SDS011;58633;49.470;11.004;2023-08-08T12:00:40;1.85;;;1.10;;
6823;SDS011;58633;49.470;11.004;2023-08-08T12:03:10;1.10;;;1.00;;
6823;SDS011;58633;49.470;11.004;2023-08-08T12:05:39;1.50;;;1.10;;
6823;SDS011;58633;49.470;11.004;2023-08-08T12:08:05;1.30;;;1.13;;
6823;SDS011;58633;49.470;11.004;2023-08-08T12:10:31;3.72;;;1.17;;
6823;SDS011;58633;49.470;11.004;2023-08-08T12:12:58;1.92;;;1.25;;
6823;SDS011;58633;49.470;11.004;2023-08-08T12:15:29;1.10;;;0.90;;
6823;SDS011;58633;49.470;11.004;2023-08-08T12:17:57;1.10;;;0.93;;
6823;SDS011;58633;49.470;11.004;2023-08-08T12:20:26;1.38;;;1.00;;
6823;SDS011;58633;49.470;11.004;2023-08-08T12:22:52;1.73;;;0.90;;
6823;SDS011;58633;49.470;11.004;2023-08-08T12:25:18;1.02;;;0.88;;
6823;SDS011;58633;49.470;11.004;2023-08-08T12:27:44;1.48;;;1.10;;
6823;SDS011;58633;49.470;11.004;2023-08-08T12:30:10;1.25;;;1.15;;
6823;SDS011;58633;49.470;11.004;2023-08-08T12:32:36;2.42;;;1.23;;
6823;SDS011;58633;49.470;11.004;2023-08-08T12:35:01;1.70;;;1.20;;
6823;SDS011;58633;49.470;11.004;2023-08-08T12:37:27;1.27;;;0.98;;
6823;SDS011;58633;49.470;11.004;2023-08-08T12:39:53;2.58;;;1.20;;
6823;SDS011;58633;49.470;11.004;2023-08-08T12:42:18;1.55;;;1.15;;
6823;SDS011;58633;49.470;11.004;2023-08-08T12:44:44;1.48;;;1.30;;
6823;SDS011;58633;49.470;11.004;2023-08-08T12:47:10;1.88;;;1.30;;
6823;SDS011;58633;49.470;11.004;2023-08-08T12:49:35;1.23;;;1.13;;
6823;SDS011;58633;49.470;11.004;2023-08-08T12:52:01;5.88;;;1.20;;
6823;SDS011;58633;49.470;11.004;2023-08-08T12:54:27;1.58;;;1.30;;
6823;SDS011;58633;49.470;11.004;2023-08-08T12:56:53;1.95;;;1.27;;
6823;SDS011;58633;49.470;11.004;2023-08-08T12:59:19;1.73;;;1.17;;
6823;SDS011;58633;49.470;11.004;2023-08-08T13:01:45;1.60;;;1.13;;
6823;SDS011;58633;49.470;11.004;2023-08-08T13:04:10;3.17;;;1.20;;
6823;SDS011;58633;49.470;11.004;2023-08-08T13:06:36;2.90;;;1.38;;
6823;SDS011;58633;49.470;11.004;2023-08-08T13:09:02;1.23;;;1.13;;
6823;SDS011;58633;49.470;11.004;2023-08-08T13:11:27;1.58;;;1.30;;
6823;SDS011;58633;49.470;11.004;2023-08-08T13:13:53;1.75;;;1.15;;
6823;SDS011;58633;49.470;11.004;2023-08-08T13:16:18;1.20;;;1.10;;
6823;SDS011;58633;49.470;11.004;2023-08-08T13:18:44;2.03;;;1.45;;
6823;SDS011;58633;49.470;11.004;2023-08-08T13:21:10;0.98;;;0.98;;
6823;SDS011;58633;49.470;11.004;2023-08-08T13:23:35;1.05;;;1.05;;
6823;SDS011;58633;49.470;11.004;2023-08-08T13:26:01;3.00;;;1.10;;
6823;SDS011;58633;49.470;11.004;2023-08-08T13:28:28;2.88;;;1.25;;
6823;SDS011;58633;49.470;11.004;2023-08-08T13:30:54;2.00;;;1.20;;
6823;SDS011;58633;49.470;11.004;2023-08-08T13:33:20;1.60;;;1.20;;
6823;SDS011;58633;49.470;11.004;2023-08-08T13:35:47;1.30;;;1.20;;
6823;SDS011;58633;49.470;11.004;2023-08-08T13:38:12;1.00;;;0.90;;
6823;SDS011;58633;49.470;11.004;2023-08-08T13:40:42;1.30;;;1.20;;
6823;SDS011;58633;49.470;11.004;2023-08-08T13:43:09;1.17;;;1.08;;
6823;SDS011;58633;49.470;11.004;2023-08-08T13:45:35;1.25;;;1.15;;
6823;SDS011;58633;49.470;11.004;2023-08-08T13:48:00;2.60;;;1.15;;
6823;SDS011;58633;49.470;11.004;2023-08-08T13:50:26;1.35;;;1.02;;
6823;SDS011;58633;49.470;11.004;2023-08-08T13:52:52;3.05;;;1.30;;
6823;SDS011;58633;49.470;11.004;2023-08-08T13:55:19;1.33;;;1.10;;
6823;SDS011;58633;49.470;11.004;2023-08-08T13:57:44;1.20;;;1.10;;
6823;SDS011;58633;49.470;11.004;2023-08-08T14:00:10;1.98;;;1.30;;
6823;SDS011;58633;49.470;11.004;2023-08-08T14:02:38;1.20;;;1.20;;
6823;SDS011;58633;49.470;11.004;2023-08-08T14:05:04;1.30;;;1.20;;
6823;SDS011;58633;49.470;11.004;2023-08-08T14:07:31;1.60;;;1.42;;
6823;SDS011;58633;49.470;11.004;2023-08-08T14:09:58;2.22;;;1.27;;
6823;SDS011;58633;49.470;11.004;2023-08-08T14:12:23;1.67;;;1.20;;
6823;SDS011;58633;49.470;11.004;2023-08-08T14:14:49;1.35;;;1.20;;
6823;SDS011;58633;49.470;11.004;2023-08-08T14:17:14;2.35;;;1.08;;
6823;SDS011;58633;49.470;11.004;2023-08-08T14:19:40;1.17;;;1.08;;
6823;SDS011;58633;49.470;11.004;2023-08-08T14:22:05;1.42;;;1.00;;
6823;SDS011;58633;49.470;11.004;2023-08-08T14:24:31;3.92;;;1.33;;
6823;SDS011;58633;49.470;11.004;2023-08-08T14:26:56;2.33;;;1.13;;
6823;SDS011;58633;49.470;11.004;2023-08-08T14:29:22;1.20;;;1.10;;
6823;SDS011;58633;49.470;11.004;2023-08-08T14:31:47;1.35;;;1.00;;
6823;SDS011;58633;49.470;11.004;2023-08-08T14:34:14;1.67;;;1.20;;
6823;SDS011;58633;49.470;11.004;2023-08-08T14:36:39;1.52;;;1.15;;
6823;SDS011;58633;49.470;11.004;2023-08-08T14:39:05;1.70;;;1.40;;
6823;SDS011;58633;49.470;11.004;2023-08-08T14:41:31;1.38;;;1.27;;
6823;SDS011;58633;49.470;11.004;2023-08-08T14:43:57;1.20;;;1.10;;
6823;SDS011;58633;49.470;11.004;2023-08-08T14:46:22;1.65;;;1.33;;
6823;SDS011;58633;49.470;11.004;2023-08-08T14:48:48;1.42;;;1.17;;
6823;SDS011;58633;49.470;11.004;2023-08-08T14:51:13;1.23;;;1.10;;